events-overview

Kinetic Sprint

 

Overall Men

4/23/2006 09:00PM

** Results are for the private use of participants and are the Intellectual Property of Set Up Events. Unauthorized use of these results is prohibited.

Place Bib Age NAME CITY/STATE Rank SWIM Rank T1 Rank BIKE Rank T2 Rank RUN PENALTY TIME DQ
130217ANDREW YODERCOLUMBIA PA300:10:061500:01:02200:44:022100:00:43700:19:35 01:15:27 
230136JOHN HARTPENCECARLISLE PA500:11:16100:00:41400:46:002500:00:45500:19:20 01:18:00 
334142DOUG MAROCCOMONTCLAIR VA600:11:20400:00:49500:46:231500:00:41300:19:00 01:18:11 
428125RICK FESLERCAMP HILL PA1300:12:101300:01:01800:47:03800:00:35400:19:09 01:19:57 
512328JAMES FOGGGERMANTOWN MD6400:15:002000:01:11300:44:471200:00:40600:19:32 01:21:09 
621128MIKE RASMUSSENWASHINGTON DC2800:13:232900:01:201000:47:164000:00:53100:18:24 01:21:14 
715929OJ KELLERBALTIMORE MD100:10:03         01:21:53 
826537STEVE MEININGERCLARKSVILLE MD1100:12:06800:00:57900:47:071300:00:402300:21:08 01:21:57 
912723JASON JENNINGSCHERRY HILL NJ200:10:044400:01:345000:51:314400:00:55200:18:37 01:22:39 
1033633MARCUS WRIGHTLYNCHBURG VA4400:14:271800:01:10600:46:373000:00:471100:20:20 01:23:20 
1122251PERRY LANGEVIRGINIA BEACH VA400:11:01700:00:551700:48:266300:01:035300:23:03 01:24:25 
1234532JOE LIBERTO 5200:14:383400:01:23100:41:407500:01:0711300:25:44 01:24:29 
1327640SHANNON PRICE-SLUSHERPHILADELPHIA PA1800:12:452200:01:14700:46:399100:01:152100:21:0400:02:0001:24:54 
1421537DAVID HOLMESLAUREL MD4500:14:311900:01:101300:47:414600:00:561400:20:38 01:24:55 
1535730WILLIAM WASKESASHBURN VA3700:14:032600:01:191500:48:093400:00:491500:20:38 01:24:56 
162330BRIAN EHRIGCHARLOTTESVILLE VA4100:14:194000:01:261200:47:398900:01:141300:20:32 01:25:10 
1724434ROBERT OSTERRIEDSTERLING VA6900:15:084800:01:361100:47:293800:00:521000:20:17 01:25:22 
1830935OLE VILLADSENARLINGTON VA2500:13:027000:01:541600:48:229200:01:161800:20:56 01:25:28 
197336DAVID LITKENHUSFREDERICKSBURG VA2100:12:5511100:02:341400:48:0513100:01:292000:21:01 01:26:03 
2022446KEITH PETERSONFALLS CHURCH VA800:11:363200:01:222900:50:125800:01:003300:22:09 01:26:17 
215021CLIFF GOLDSTEINSAN FRANCISCO CA2000:12:51900:00:583400:50:342800:00:472700:21:34 01:26:42 
229534DANIEL BOURDAGHSBRISTOW VA2600:13:042700:01:192000:49:159400:01:163100:22:06 01:26:59 
239940MICHAEL BENEDICTNORFOLK VA4800:14:33600:00:544000:50:471100:00:391700:20:49 01:27:41 
2422923KEMP SAVAGEFREDERICKSBURG VA4600:14:328100:02:062300:49:404500:00:551600:20:47 01:27:58 
2535019ERIC GARMONGLEN ALLEN VA7600:15:353000:01:211900:49:151600:00:422500:21:18 01:28:08 
261825ARIEL SALINASARLINGTON VA7900:15:383700:01:253800:50:426000:01:01800:20:03 01:28:47 
2727320SAMUEL RYKACZEWSKIANNAPOLIS MD1500:12:131700:01:108400:54:361800:00:42900:20:16 01:28:55 
2810523GEOFF PATTERSONARLINGTON VA1400:12:122100:01:146400:52:348400:01:104100:22:25 01:29:32 
2934233TODD WESTERMANLIGONIER PA4000:14:104900:01:373000:50:123100:00:485800:23:20 01:30:05 
3010116GRAYSON COBBRICHMOND VA7700:15:369000:02:204100:50:546800:01:041200:20:30 01:30:23 
PlaceBibAgeNAMECITY/STATERankSWIMRankT1RankBIKERankT2RankRUNPENALTYTIMEDQ
3122746PHILIP DAWSONRICHMOND VA1600:12:175300:01:392500:49:5612600:01:279700:25:07 01:30:24 
3227735STEPHEN LINDRIDGEMIDLOTHIAN VA3300:13:461200:01:014900:51:204800:00:576300:23:23 01:30:24 
33314BRENDAN ADAMSMANASSAS VA900:12:044500:01:347500:53:295100:00:574300:22:28 01:30:30 
3420534MICHAEL MEDLINCHRISTIANSBURG VA9500:16:063600:01:243900:50:44200:00:302900:21:56 01:30:38 
3525527SCOTT BAILEYCENTREVILLE VA10000:16:113300:01:223300:50:332200:00:433000:21:59 01:30:46 
3615142JEFFREY QUEDADOMORGANTOWN WV5500:14:424100:01:273700:50:398500:01:105100:22:57 01:30:54 
372924BRIAN LEYDETVIRGINIA BEACH VA4300:14:23300:00:455200:51:404300:00:555900:23:21 01:31:02 
386822DAVID HANSENWASHINGTON DC DC5600:14:4610000:02:275800:52:11100:00:292400:21:12 01:31:03 
3923340PAUL STEUDLEINLACOMBE LA3400:13:4910700:02:334800:51:167800:01:083900:22:19 01:31:04 
4029851PAUL SPENCERRESTON VA2300:12:587200:01:553100:50:1714700:01:407900:24:21 01:31:10 
4110248GREGG MUNROEALEXANDRIA VA7100:15:1313200:02:501800:49:025600:00:596000:23:21 01:31:24 
4219838MICHAEL SIMPSONSILVER SPRING MD8500:15:478400:02:102400:49:5312400:01:263700:22:15 01:31:29 
4315645JOHN SABELHAUSSILVER SPRING MD1900:12:503900:01:262200:49:325500:00:5913500:26:51 01:31:37 
4425427MATTHEW SANDERLCOLUMBIA MD1000:12:063500:01:246800:53:092300:00:448300:24:29 01:31:48 
4521629MICHAEL HOLCOMBINDIAN HEAD MD7500:15:327100:01:554200:50:5611900:01:253500:22:12 01:31:58 
4613433JEREMY CASEYSTAFFORD VA9900:16:102400:01:163200:50:273500:00:496400:23:25 01:32:06 
478241DAVID ZEMORIXEYVILLE VA6200:14:564300:01:334300:51:012700:00:467500:23:59 01:32:13 
4819629MICHAEL D''ANGELOCOLUMBIA MD6500:15:022800:01:207300:53:201000:00:363400:22:11 01:32:26 
4921056DON MORRISONWEST BRANDYWINE PA11000:16:246100:01:482700:50:043600:00:516100:23:22 01:32:28 
503141BILL WHEELERELLICOTT CITY MD9600:16:085700:01:432800:50:1117000:01:595400:23:08 01:33:06 
5129030DAN HOELLERCHARLOTTESVILLE VA1700:12:1810300:02:302100:49:285400:00:5915300:28:03 01:33:15 
5210327GREG MYERSARLINGTON VA1200:12:096600:01:548500:54:3616300:01:514700:22:48 01:33:16 
532736BILL PHILLIPSGLEN ALLEN VA2400:12:594200:01:296600:52:585300:00:579500:25:04 01:33:26 
54822AARON MACGRAYLAVALE MD14600:18:177300:01:574600:51:09300:00:312800:21:54 01:33:47 
555335CHAD PLANTZHERNDON VA11200:16:285800:01:435700:52:0212500:01:263800:22:18 01:33:55 
5635434DAVID KATZENCENTREVILLE VA5300:14:4010400:02:306500:52:4512800:01:274500:22:37 01:33:57 
5717427LEETE GARRETTANNAPOLIS MD11700:16:4716800:03:544500:51:057600:01:072200:21:06 01:33:57 
5831033VEDAT KAPLANFREDERICK MD5700:14:471600:01:046000:52:17400:00:3111700:26:01 01:34:38 
598943DOUGLAS PRICEFAIRFAX VA8600:15:511400:01:015600:52:027000:01:049000:24:43 01:34:40 
6031728NIC WISECARVERANNAPOLIS MD7800:15:375100:01:386100:52:282900:00:473600:22:1300:02:0001:34:41 
6118043JAY LOCHHEADMIDDLETOWN MD13200:17:421100:01:006700:53:044100:00:543200:22:09 01:34:46 
PlaceBibAgeNAMECITY/STATERankSWIMRankT1RankBIKERankT2RankRUNPENALTYTIMEDQ
628545JAY KAUFFMANNEARLYSVILLE VA700:11:3510500:02:312600:49:5918200:02:1716200:28:56 01:35:15 
63619ALEX PAPEWASHINGTON DC13400:17:433800:01:265900:52:173200:00:496200:23:22 01:35:34 
6426043SERGE VANDERBREETSTRAETENALEXANDRIA VA8100:15:418700:02:134400:51:0511600:01:2410500:25:24 01:35:46 
6516350KEONI CHEFFENSRESTON VA12200:17:052300:01:153500:50:355200:00:5711900:26:08 01:35:58 
667726JEDEDIAH DEITRICKSLATINGTON PA5400:14:4114500:03:083600:50:3610300:01:2012300:26:18 01:36:02 
6733343LARRY REDROWWENNAH NJ16000:19:236000:01:485300:51:516600:01:044400:22:32 01:36:35 
6819050MARK LONGROANOKE VA10200:16:148500:02:118700:54:46900:00:355000:22:53 01:36:37 
6928344BARRY BARKERBRISTOW VA6300:14:586300:01:517900:54:2014400:01:367300:23:57 01:36:41 
709847KEVIN MURRAYCHARLOTTESVILLE VA7000:15:108200:02:076200:52:30     01:36:43 
7134735BRUCE SCHVETTE 8800:15:545600:01:407400:53:2712300:01:267800:24:18 01:36:44 
7212636JAMES BAUERFAIRFAX VA9200:16:0314200:03:047100:53:179500:01:175500:23:08 01:36:46 
7325254STEVE BRADLEYPURCELLVILLE VA5000:14:352500:01:189600:55:267700:01:088500:24:32 01:36:57 
7411046CARL HASELDENSTAFFORD VA5800:14:486800:01:547800:54:105900:01:019900:25:11 01:37:02 
7519428BEN SHOEMAKERCHARLOTTESVILLE VA5100:14:376200:01:5010800:56:199300:01:165600:23:14 01:37:14 
7610435GREGORY HAGARPULASKI VA10100:16:145900:01:4610300:55:53     01:37:14 
775823DANIEL ZASTROWANNAPOLIS MD2200:12:585400:01:3913200:58:121700:00:427100:23:54 01:37:22 
7831941THOMAS GLASSKENSINGTON MD11600:16:4011000:02:347000:53:1313300:01:316600:23:32 01:37:27 
795116CHRIS LUCHACHESAPEAKE VA12900:17:297800:02:029400:55:1710600:01:222600:21:30 01:37:37 
805926DAVID GEDNEYROCKVILLE MD7400:15:1913800:02:565100:51:3514800:01:4112200:26:14 01:37:43 
8111742TOM BEGLEYSTERLING VA10500:16:188000:02:038300:54:3013600:01:326700:23:34 01:37:55 
8216826KEVIN RIEGLERWASHINGTON DC5900:14:5012700:02:458600:54:38     01:38:05 
835227CHRISTOPHER WRENARLINGTON VA           01:38:06 
844038JAMES DEMMASILVER SPRING MD8200:15:4313300:02:528100:54:25600:00:329600:25:06 01:38:36 
8530831UMIT AKKAYAFREDERICK MD17700:20:25500:00:525500:52:014900:00:578400:24:29 01:38:42 
8628620TERRENCE WINTERSNEW YORK NY6700:15:054700:01:3612500:57:4517500:02:104000:22:21 01:38:56 
873040BRIAN MUMAWSANDY HOOK VA9100:16:0213100:02:4910100:55:3614000:01:345200:22:59 01:38:59 
8830437GEORGE ROGERSFALLS CHURCH VA10800:16:237400:02:007200:53:1910200:01:1912800:26:39 01:39:38 
895739DANIEL ROYBRAINTREE MA6000:14:5112400:02:459100:54:5716700:01:5611800:26:04 01:40:31 
9032226ZACH SHERMANARLINGTON VA11900:16:576900:01:5411900:57:073300:00:497400:23:59 01:40:45 
912135SCOTT BAINARLINGTON VA9300:16:0510100:02:2811700:57:0612000:01:267200:23:54 01:40:57 
9225932SCOTT MCPHERSONSTAFFORD VA4200:14:2110600:02:3112300:57:309000:01:1510600:25:25 01:40:59 
PlaceBibAgeNAMECITY/STATERankSWIMRankT1RankBIKERankT2RankRUNPENALTYTIMEDQ
939035ERIC MITCHELLANNAPOLIS MD14300:18:097900:02:029900:55:3410700:01:228600:24:35 01:41:40 
947452DUANE LODRIGEANNAPOLIS MD6800:15:0712600:02:457600:53:5011700:01:2515900:28:35 01:41:40 
9520236MICHAEL WARNERFALL CHURCH VA6600:15:059700:02:2512200:57:2613000:01:2710200:25:20 01:41:41 
9633928MATT BRAYNARDARLINGTON VA12700:17:25200:00:4113000:58:106500:01:048000:24:24 01:41:41 
9727127J.R. STRATTONALEXANDRIA VA17000:19:5816500:03:496900:53:094700:00:567000:23:53 01:41:44 
9811119BRANDON HENDRICKSONSTAFFORD VA2700:13:1816100:03:3110900:56:239900:01:1810100:25:1700:02:0001:41:46 
9914528TUCKER JONESFALLS CHURCH VA10600:16:205500:01:404700:51:1211200:01:2317800:31:21 01:41:55 
10025638STEVE BREISETHGREAT FALLS VA8900:16:008300:02:1010700:56:008300:01:0913100:26:42 01:42:01 
1014854CHARLIE MARTORANAMANASSAS VA10400:16:179400:02:2311400:56:4611300:01:2410000:25:13 01:42:01 
10224737RICK PERRAULTCHARLOTTESVILLE VA15500:18:5310800:02:349800:55:3311500:01:246800:23:49 01:42:11 
1036056DAVID CONOVERGREAT FALLS VA3800:14:0310900:02:349700:55:2917400:02:0915100:28:00 01:42:13 
10420733ROBERT MOFFETTSILVER SPRING MD11400:16:327500:02:0010500:55:554200:00:5413900:27:10 01:42:28 
10526430SCOTT HOUSTONARLINGTON VA3100:13:415000:01:3714300:58:4314300:01:3613800:27:02 01:42:38 
10629751LEN TOLEDOPALMYRA VA12800:17:2914600:03:115400:51:5320000:03:5012400:26:23 01:42:43 
10723431QUANG NGUYENROCKVILLE MD6100:14:543100:01:2114200:58:323700:00:5214000:27:18 01:42:55 
10832335JAMES PRADKENEWPORT NEWS VA18000:20:3411400:02:367700:54:0313200:01:297700:24:17 01:42:58 
10912036MARK IVORYSPOTSYLVANIA VA12500:17:1814400:03:0711000:56:2813900:01:338900:24:38 01:43:02 
11022649PHILIP KAINLOVETTSVILLE VA3900:14:0514700:03:1411800:57:0710800:01:2214300:27:20 01:43:05 
1113330WILLIAM RASCHERWOODBRIDGE VA13700:17:499800:02:259300:55:148800:01:1412600:26:36 01:43:17 
1128030DOYLE SHEACINCINNATI OH8700:15:5215000:03:1812700:57:5215900:01:488800:24:37 01:43:26 
11318936MARIO RIVERAALEXANDRIA VA17400:20:1912300:02:428000:54:2110100:01:199300:24:59 01:43:39 
1147246DONALD KNUTSONLEESBURG VA3500:13:5217200:04:0412900:58:0418000:02:1710900:25:36 01:43:52 
11525044RUSS WOLFEMIDLOTHIAN VA13900:17:5515400:03:268200:54:2619100:02:2711100:25:42 01:43:54 
1168336EDWARD KAYBEAVERDAM VA16700:19:4814000:03:0010000:55:358600:01:118100:24:26 01:43:58 
11713931JONATHAN MEACHAMFREDERICKSBURG VA13300:17:436700:01:5412000:57:0816600:01:5410300:25:22 01:44:00 
1182434FAT DADDY GILBARTEBLACKSBURG VA15100:18:2915900:03:2911500:56:48     01:44:23 
11935531BRYAN RHODE 4700:14:3212000:02:4117501:03:247900:01:084800:22:51 01:44:34 
12012837JOHN DALYNEW YORK NY10900:16:234600:01:3511600:56:5918300:02:1814700:27:37 01:44:51 
12114623JONATHON BACKUSCHEVY CHASE MD13800:17:5116400:03:496300:52:3219600:02:5214800:27:53 01:44:55 
1221028AARON PIAZZAUPPER MARLBORO MD13000:17:3911200:02:3515200:59:3917100:02:025700:23:17 01:45:10 
1236360DAVID BREESECLIFTON VA12300:17:0713600:02:5514400:58:4713700:01:329100:24:53 01:45:12 
PlaceBibAgeNAMECITY/STATERankSWIMRankT1RankBIKERankT2RankRUNPENALTYTIMEDQ
12423021PHILIP BANKSFREDERICKSBURG VA10300:16:1611600:02:3717201:03:07700:00:334600:22:43 01:45:14 
12527423SAMUEL SILVERMANNORFOLK VA3000:13:316500:01:5314000:58:3012700:01:2716800:30:02 01:45:19 
12622839PALMER MCCLOSKEYSTAFFORD VA12600:17:1915700:03:2811200:56:3811000:01:2312700:26:38 01:45:23 
12729241TODD PAVICHLAKERIDGE VA11500:16:3912500:02:4513100:58:117200:01:0513400:26:48 01:45:26 
12813547JAMES CAMPBELLPURCELLVILLE VA12400:17:1016900:03:5913800:58:275000:00:579400:25:03 01:45:34 
12921424MICHAEL ROBBINSWASHINGTON DC18700:21:229500:02:2410600:55:5510900:01:238700:24:37 01:45:38 
1306942DANIEL PLOURDCOLUMBIA MD18200:20:3614800:03:159500:55:2412100:01:269800:25:08 01:45:47 
13125339MARK SAMUELSCROFTON MD9800:16:109900:02:2713700:58:276900:01:0414900:27:58 01:46:03 
1329640FREDERIC LOUATWASHINGTON DC14800:18:1817000:04:008900:54:54     01:46:24 
1331254ANDREW APOLLONYASHBURN VA15900:19:225200:01:3914500:58:596100:01:0210700:25:26 01:46:27 
13413225JEFFREY FISHERFALLS CHURCH VA16400:19:366400:01:5210400:55:538700:01:1315200:28:01 01:46:32 
13514750JONATHAN SLEEPHERNDON VA14200:17:579100:02:218800:54:5018500:02:2016400:29:23 01:46:50 
13632046WARE PALMERARLINGTON VA3200:13:4614100:03:0313900:58:2816100:01:5116600:29:51 01:46:57 
13712437JAMES MARTINPHILADELPHIA PA4900:14:3413000:02:4915100:59:3814600:01:4015700:28:22 01:47:01 
1389747RAND FOLKMANGLENELG MD13500:17:4317300:04:0511300:56:4219300:02:4512000:26:09 01:47:23 
13913037JED VANICHKACHORNGLEN ALLEN VA17600:20:2411900:02:4113600:58:266400:01:034900:22:5200:02:0001:47:25 
14026731FRANK CAMERAEAST PETERSBURG PA16100:19:257600:02:0014900:59:3511100:01:2310400:25:23 01:47:44 
14135232BRIAN MCNALLY 9400:16:0613500:02:549000:54:5516500:01:5218000:32:07 01:47:53 
14230022ADAM JUDELSONWASHINGTON DC15600:19:0312100:02:4213300:58:171900:00:4314200:27:19 01:48:02 
14330549JAMES TUBBSLEXINGTON VA14900:18:2116600:03:5312100:57:1417200:02:0313200:26:43 01:48:12 
14415836JOHN SWANLUNDGLEN ALLEN VA8300:15:4412200:02:4216001:01:0716900:01:5713600:26:53 01:48:22 
14523116ANDY PRATTOAK HILL VA12000:16:58         01:48:27 
1469328EVAN HILLWEST HARTFORD CT7300:15:188800:02:13       01:48:37 
1476633DEREK SMITHSILVER SPRING MD8400:15:4515600:03:2815501:00:1916200:01:5114400:27:26 01:48:47 
1488430ERIK HOFFLANDWASHINGTON DC18800:21:4420100:05:269200:55:1313400:01:319200:24:56 01:48:48 
14912128RICHARD MOOREWASHINGTON DC9700:16:0811300:02:3612800:57:5515200:01:4517200:30:29 01:48:51 
15019733MICHAEL DUNNLEESBURG VA15700:19:159600:02:2414800:59:2818400:02:1910800:25:27 01:48:52 
15114932JASON PHILLIPSDUMFRIES VA7200:15:1716200:03:3416401:01:4714100:01:3413300:26:46 01:48:56 
15227841STEPHEN SIMONSPARKS MD14000:17:5618400:04:2811100:56:2917300:02:0915000:27:59 01:48:59 
15332930JONATHAN MOOREALEXANDRIA VA14400:18:1019700:05:16       01:49:44 
15420625MARK MILLIKENVIRGINIA BEACH VA3600:13:5916000:03:3019301:10:487300:01:071900:21:00 01:50:21 
PlaceBibAgeNAMECITY/STATERankSWIMRankT1RankBIKERankT2RankRUNPENALTYTIMEDQ
1552657BILL REICHHARDTCENTREVILLE VA15000:18:2915500:03:2715301:00:1016400:01:5113700:26:56 01:50:51 
15627237SCOTT STREICHERBURKE VA17500:20:209300:02:2312600:57:5114200:01:3516100:28:56 01:51:04 
15730743TODD GUNDERSONELLICOTT CITY MD13600:17:4519600:05:0615601:00:1914500:01:4012500:26:35 01:51:23 
1581516ADAM PETERSENSALEM VA17800:20:3017900:04:2016501:02:001400:00:418200:24:27 01:51:56 
15920331MATTHEW KLAPMUSTARLINGTON VA10700:16:2117700:04:1713400:58:178100:01:0918100:32:15 01:52:18 
16011429WEI LUMONTGOMERY VILLAGE MD13100:17:4019500:05:0114700:59:2119700:02:5614500:27:27 01:52:22 
16124828ROGER TORRESALEXANDRIA VA16900:19:5411500:02:3616601:02:0715700:01:4712100:26:10 01:52:33 
16215333JASON RIFFELSTERLING VA16800:19:5213400:02:5314100:58:306700:01:0417400:31:03 01:53:19 
1632839BRADFORD KINGSPOTSYLVANIA VA19100:21:5617600:04:1414600:59:1717700:02:1111600:25:56 01:53:32 
16413661JOHN DEANALEXANDRIA VA14500:18:1715300:03:2617101:03:0315000:01:4314100:27:19 01:53:46 
16534927ISAAC REESE 19200:21:589200:02:2217401:03:132400:00:4411000:25:39 01:53:53 
1664736CRAIG GIBIANMCLEAN VA14100:17:5717800:04:1817901:04:1117900:02:1311200:25:43 01:54:20 
16729939ANTHONY ARKOASHBURN VA18600:21:1810200:02:2815901:00:489700:01:1716000:28:43 01:54:32 
16825845SCOTT BACHMANSMITHFIELD VA18500:21:1413700:02:5615401:00:1116800:01:5715800:28:33 01:54:49 
16931221MATTHEW MORRISRINER VA19500:22:2011800:02:4017001:03:028200:01:0911400:25:44 01:54:54 
17019241JOE SABELHAUSGERMANTOWN MD19000:21:5015200:03:2312400:57:3417600:02:1117100:30:25 01:55:21 
17133546BOBBY MASONRICHMOND VA18100:20:348600:02:1213500:58:2515100:01:4418700:32:49 01:55:42 
17216646KEITH KREUZHEDGESVILLE WV17100:20:1318200:04:2717801:03:457400:01:0713000:26:42 01:56:11 
17321830KENNETH DALLIAWASHINGTON DC18900:21:4520700:06:3315000:59:3520100:04:346900:23:50 01:56:15 
1742043DONALD AVONDOLIOMANASSAS VA15400:18:4317400:04:1116101:01:1116000:01:5018400:32:36 01:58:28 
17523245LOWELL PRATTOAK HILL VA15800:19:1917500:04:1416201:01:299600:01:1718200:32:16 01:58:33 
1766120DAVID DOTSONASHBURN VA19400:22:0818300:04:2818001:04:452600:00:4512900:26:40 01:58:44 
17727031PATRICK HOGANRIVA MD15200:18:3218800:04:4116701:02:128000:01:0818300:32:21 01:58:53 
17828039SANJAY PATELKENSINGTON MD19300:22:0615800:03:2816901:02:3819400:02:4715400:28:06 01:59:03 
17929649CHRIS HULETTARLINGTON VA11100:16:2619200:04:5818301:06:0319000:02:2316500:29:27 01:59:14 
18022022JOE SCHAYAWARRENTON VA15300:18:3318500:04:3216801:02:3310000:01:1918600:32:47 01:59:42 
18111838IAN MUTTONSYKESVILLE MD20900:30:4911700:02:3910200:55:3813500:01:3116300:29:10 01:59:45 
18221724JOHN NEWCOMBEARLINGTON VA2900:13:247700:02:0120201:20:372000:00:436500:23:29 02:00:12 
18334361BRADFORD KIRLEYRESTON VA16500:19:3812800:02:4518101:05:1718700:02:2117000:30:19 02:00:18 
18410744DANIEL HAMPTONALEXANDRIA VA18300:20:4318000:04:2017701:03:355700:00:5917700:31:21 02:00:57 
18531527R.WHIT MORRISRICHMOND VA9000:16:0112900:02:4819601:13:073900:00:5315500:28:17 02:01:04 
PlaceBibAgeNAMECITY/STATERankSWIMRankT1RankBIKERankT2RankRUNPENALTYTIMEDQ
18614142JOHN TREXLERMIDLOTHIAN VA11800:16:4816700:03:5318901:07:3819500:02:4817300:30:58 02:02:03 
187234ALONSO CISNEROSFREDERICKSBURG VA18400:21:1420200:05:4317301:03:1118800:02:2116700:29:59 02:02:26 
188551CHARLES HAYWOODLEXINGTON VA11300:16:2819800:05:1715701:00:2515800:01:4719700:39:40 02:03:36 
18914267JOHN MULFLUREASTON, MD12100:17:0420400:05:5918601:07:026200:01:0219000:33:42 02:04:47 
19028931MATT TIEDESOUTH RIDING VA17200:20:1316300:03:4118501:06:3212900:01:2718900:33:26 02:05:16 
19112522JAIME TORRESALEXANDRIA VA16600:19:4017100:04:0419001:07:4010400:01:2018800:33:09 02:05:51 
19231132CHRISTOPHER WELLSWILLIAMSBURG VA20500:29:1615100:03:2117601:03:2915400:01:4615600:28:19 02:06:09 
19310631RICHARD GURZFALLS CHURCH VA20100:24:5420000:05:2518701:07:0214900:01:4114600:27:27 02:06:28 
19415541JOSE ROMEROGLEN BURNIE MD20600:30:1213900:02:5818401:06:1912200:01:2611500:25:54 02:06:47 
1953552SCOTT BROWNLINTHICUM MD17900:20:3219100:04:4519101:08:0917800:02:1317500:31:16 02:06:53 
19613125JEFF BARNHARTARLINGTON VA14700:18:1814900:03:1620301:21:1515500:01:474200:22:25 02:06:59 
19734827BOB EWING 19700:23:2714300:03:0620001:17:26500:00:327600:24:13 02:08:42 
1987939DON PETTFREDERICKSBURG VA20200:26:5118900:04:4216301:01:4015600:01:4719300:34:08 02:09:05 
19913836JOHN MALONEARLINGTON VA16300:19:3320800:08:0518801:07:1018100:02:1717900:32:04 02:09:06 
2006549DENNIS MARTINMIDLOTHIAN VA19800:23:3419300:05:0019201:10:0011800:01:2519100:33:43 02:13:39 
20118737CHRISTOPHER MACKAYARLINGTON VA20400:27:3120300:05:5218201:05:1919800:03:1518500:32:46 02:14:41 
20218826MARC KOKOSKYALEXANDRIA VA17300:20:1818100:04:2319401:11:5218600:02:2019400:36:41 02:15:32 
20317634STEPHEN LETTRICHSILVER SPRING MD20000:24:4719000:04:4319701:13:3118900:02:2116900:30:15 02:15:36 
20414834ROB THOMASFAIRFAX VA19900:24:4320600:06:2219801:15:3710500:01:2117600:31:20 02:19:21 
20512247JAMES CAMPBELLCHESAPEAKE VA19600:22:398900:02:2015801:00:4315300:01:4520000:53:01 02:20:26 
20616972KEN SCHAEDELCOLUMBIA MD    19901:15:4019200:02:4319200:33:44 02:22:30 
20716437C KHARODKENSINGTON MD20300:27:0618700:04:4019501:12:499800:01:1719600:39:22 02:25:12 
20820923NATHANIEL MOREIRAFALLS CHURCH VA21100:36:2819400:05:0020101:18:40     02:30:06Y
2094237CRIS MIRANDAROCKVILLE MD20800:30:2919900:05:2420601:28:1511400:01:2419500:38:42 02:44:13 
2102568RAY GILBARTEWIRTZ VA20700:30:1320900:08:3020501:24:4313800:01:3219800:42:37 02:47:34 
21118442JON EDWARDS JRDAVIDSONVILLE MD21000:35:3020500:06:1620401:24:057100:01:0519900:42:44 02:49:38 
2123938UYEN NGUYENSILVER SPRING MD16200:19:2618600:04:3820701:51:0219900:03:33     
21316743GLEN KNUTSONVIRGINIA BEACH VA8000:15:391000:00:58         

** Results are for the private use of participants and are the Intellectual Property of Set Up Events. Unauthorized use of these results is prohibited.